createdAt,value
2022-10-01T00:02:06.827Z,6.30
2022-10-01T00:04:37.251Z,6.40
2022-10-01T00:07:09.639Z,6.50
2022-10-01T00:09:37.542Z,6.50
2022-10-01T00:12:04.752Z,6.60
2022-10-01T00:14:32.032Z,6.80
2022-10-01T00:16:59.343Z,7.00
2022-10-01T00:19:27.155Z,7.20
2022-10-01T00:21:54.323Z,7.40
2022-10-01T00:24:21.513Z,7.50
2022-10-01T00:26:48.838Z,7.70
2022-10-01T00:29:16.226Z,7.70
2022-10-01T00:31:43.542Z,7.80
2022-10-01T00:34:13.142Z,7.90
2022-10-01T00:36:40.315Z,8.00
2022-10-01T00:39:07.600Z,8.10
2022-10-01T00:41:35.506Z,8.10
2022-10-01T00:44:32.265Z,8.00
2022-10-01T00:47:05.575Z,7.90
2022-10-01T00:49:35.785Z,7.80
2022-10-01T00:52:08.203Z,7.70
2022-10-01T00:54:41.538Z,7.70
2022-10-01T00:57:10.605Z,7.60
2022-10-01T00:59:37.822Z,7.60
2022-10-01T01:02:05.120Z,7.60
2022-10-01T01:04:34.670Z,7.50
2022-10-01T01:07:03.887Z,7.50
2022-10-01T01:09:34.789Z,7.40
2022-10-01T01:12:04.694Z,7.40
2022-10-01T01:15:01.512Z,7.30
2022-10-01T01:17:38.104Z,7.20
2022-10-01T01:20:18.827Z,7.20
2022-10-01T01:23:25.113Z,7.30
2022-10-01T01:26:24.708Z,7.50
2022-10-01T01:28:57.331Z,7.50
2022-10-01T01:31:34.528Z,7.60
2022-10-01T01:34:05.365Z,7.60
2022-10-01T01:36:38.120Z,7.60
2022-10-01T01:39:10.090Z,7.60
2022-10-01T01:41:43.114Z,7.60
2022-10-01T01:44:12.821Z,7.50
2022-10-01T01:46:44.344Z,7.40
2022-10-01T01:49:12.356Z,7.40
2022-10-01T01:51:58.666Z,7.40
2022-10-01T01:54:25.814Z,7.30
2022-10-01T01:56:55.912Z,7.10
2022-10-01T01:59:23.233Z,7.10
2022-10-01T02:01:51.261Z,7.10
2022-10-01T02:04:50.659Z,6.90
2022-10-01T02:07:26.823Z,6.80
2022-10-01T02:10:00.764Z,6.90
2022-10-01T02:13:05.496Z,6.90
2022-10-01T02:15:55.415Z,6.80
2022-10-01T02:18:43.880Z,7.10
2022-10-01T02:21:17.414Z,6.90
2022-10-01T02:23:58.250Z,7.10
2022-10-01T02:26:28.577Z,7.40
2022-10-01T02:29:03.225Z,7.40
2022-10-01T02:31:32.263Z,7.20
2022-10-01T02:34:01.376Z,7.30
2022-10-01T02:36:30.973Z,7.50
2022-10-01T02:39:00.673Z,7.30
2022-10-01T02:41:35.353Z,7.30
2022-10-01T02:44:09.193Z,7.20
2022-10-01T02:46:45.450Z,7.10
2022-10-01T02:49:13.478Z,7.10
2022-10-01T02:52:03.383Z,7.30
2022-10-01T02:54:45.541Z,7.20
2022-10-01T02:57:29.852Z,7.20
2022-10-01T03:00:00.204Z,7.20
2022-10-01T03:02:29.178Z,7.20
2022-10-01T03:04:57.662Z,7.20
2022-10-01T03:07:26.167Z,7.30
2022-10-01T03:09:53.538Z,7.20
2022-10-01T03:12:20.665Z,7.40
2022-10-01T03:14:48.423Z,7.60
2022-10-01T03:17:16.630Z,7.60
2022-10-01T03:19:43.803Z,7.60
2022-10-01T03:22:14.797Z,7.60
2022-10-01T03:24:41.977Z,7.80
2022-10-01T03:27:09.332Z,7.80
2022-10-01T03:29:36.516Z,7.80
2022-10-01T03:32:03.675Z,7.90
2022-10-01T03:34:30.828Z,7.90
2022-10-01T03:36:57.932Z,7.80
2022-10-01T03:39:25.075Z,7.80
2022-10-01T03:41:52.222Z,7.80
2022-10-01T03:44:19.388Z,7.70
2022-10-01T03:46:46.497Z,7.70
2022-10-01T03:49:13.947Z,7.70
2022-10-01T03:51:41.253Z,7.70
2022-10-01T03:54:09.532Z,7.80
2022-10-01T03:56:37.964Z,7.80
2022-10-01T03:59:05.243Z,7.90
2022-10-01T04:01:32.870Z,7.90
2022-10-01T04:04:00.414Z,7.90
2022-10-01T04:06:27.563Z,7.90
2022-10-01T04:08:54.745Z,7.90
2022-10-01T04:11:21.874Z,8.00
2022-10-01T04:13:49.281Z,8.00
2022-10-01T04:16:16.672Z,8.00
2022-10-01T04:18:44.052Z,8.10
2022-10-01T04:21:12.893Z,8.00
2022-10-01T04:23:40.317Z,8.00
2022-10-01T04:26:08.359Z,7.90
2022-10-01T04:28:35.941Z,7.90
2022-10-01T04:31:22.297Z,7.90
2022-10-01T04:33:49.537Z,7.90
2022-10-01T04:36:16.778Z,7.90
2022-10-01T04:38:44.002Z,7.90
2022-10-01T04:41:11.197Z,7.80
2022-10-01T04:43:38.314Z,7.90
2022-10-01T04:46:05.538Z,7.90
2022-10-01T04:48:32.693Z,7.90
2022-10-01T04:50:59.782Z,7.90
2022-10-01T04:53:26.918Z,7.80
2022-10-01T04:55:54.690Z,7.80
2022-10-01T04:58:22.032Z,7.70
2022-10-01T05:00:50.097Z,7.60
2022-10-01T05:03:18.581Z,7.60
2022-10-01T05:05:45.764Z,7.50
2022-10-01T05:08:12.902Z,7.40
2022-10-01T05:10:40.099Z,7.40
2022-10-01T05:13:07.275Z,7.30
2022-10-01T05:15:35.847Z,7.20
2022-10-01T05:18:03.019Z,7.20
2022-10-01T05:20:30.241Z,7.10
2022-10-01T05:22:57.371Z,7.00
2022-10-01T05:25:24.565Z,7.00
2022-10-01T05:27:51.926Z,7.00
2022-10-01T05:30:24.370Z,7.00
2022-10-01T05:32:59.092Z,7.00
2022-10-01T05:35:26.548Z,6.90
2022-10-01T05:37:58.497Z,6.90
2022-10-01T05:40:27.682Z,6.80
2022-10-01T05:42:56.604Z,6.90
2022-10-01T05:45:24.057Z,6.90
2022-10-01T05:48:02.050Z,7.00
2022-10-01T05:50:34.043Z,7.10
2022-10-01T05:53:02.242Z,7.00
2022-10-01T05:55:34.864Z,7.00
2022-10-01T05:58:08.304Z,7.10
2022-10-01T06:00:36.398Z,7.00
2022-10-01T06:03:05.863Z,7.00
2022-10-01T06:05:34.775Z,7.10
2022-10-01T06:08:04.744Z,7.10
2022-10-01T06:10:31.872Z,7.10
2022-10-01T06:13:04.450Z,7.10
2022-10-01T06:15:39.691Z,7.10
2022-10-01T06:18:08.635Z,7.00
2022-10-01T06:20:36.648Z,7.00
2022-10-01T06:23:07.452Z,7.00
2022-10-01T06:25:35.222Z,7.00
2022-10-01T06:28:02.772Z,7.00
2022-10-01T06:30:31.966Z,7.10
2022-10-01T06:33:14.511Z,7.10
2022-10-01T06:35:52.217Z,7.00
2022-10-01T06:38:21.668Z,7.00
2022-10-01T06:41:00.094Z,7.10
2022-10-01T06:43:29.361Z,7.10
2022-10-01T06:45:56.941Z,7.20
2022-10-01T06:48:24.227Z,7.30
2022-10-01T06:50:54.644Z,7.40
2022-10-01T06:53:22.153Z,7.40
2022-10-01T06:55:50.138Z,7.50
2022-10-01T06:58:19.729Z,7.60
2022-10-01T07:00:47.686Z,7.80
2022-10-01T07:03:18.431Z,8.00
2022-10-01T07:05:45.999Z,8.30
2022-10-01T07:08:13.504Z,8.50
2022-10-01T07:10:41.331Z,8.60
2022-10-01T07:13:20.384Z,8.90
2022-10-01T07:15:47.857Z,9.10
2022-10-01T07:18:15.314Z,9.40
2022-10-01T07:20:42.628Z,9.80
2022-10-01T07:23:17.432Z,10.00
2022-10-01T07:25:46.158Z,10.00
2022-10-01T07:28:19.185Z,10.00
2022-10-01T07:30:57.282Z,10.10
2022-10-01T07:33:24.417Z,10.20
2022-10-01T07:35:51.595Z,10.30
2022-10-01T07:38:18.952Z,10.50
2022-10-01T07:40:51.859Z,10.60
2022-10-01T07:43:19.439Z,11.00
2022-10-01T07:45:50.330Z,11.90
2022-10-01T07:48:17.983Z,12.80
2022-10-01T07:50:45.994Z,13.20
2022-10-01T07:53:13.937Z,13.30
2022-10-01T07:55:41.119Z,12.80
2022-10-01T07:58:08.606Z,12.40
2022-10-01T08:00:36.064Z,12.30
2022-10-01T08:03:03.754Z,12.30
2022-10-01T08:05:33.969Z,12.50
2022-10-01T08:08:03.732Z,12.50
2022-10-01T08:10:35.522Z,12.40
2022-10-01T08:13:08.369Z,12.60
2022-10-01T08:15:36.127Z,12.60
2022-10-01T08:18:04.663Z,12.60
2022-10-01T08:20:32.137Z,12.60
2022-10-01T08:23:09.139Z,12.90
2022-10-01T08:25:37.151Z,13.00
2022-10-01T08:28:05.016Z,13.50
2022-10-01T08:30:32.322Z,13.50
2022-10-01T08:33:00.854Z,13.00
2022-10-01T08:35:28.843Z,12.80
2022-10-01T08:38:01.065Z,12.70
2022-10-01T08:40:29.528Z,12.70
2022-10-01T08:43:00.142Z,12.70
2022-10-01T08:45:49.518Z,12.90
2022-10-01T08:48:41.360Z,12.90
2022-10-01T08:51:37.453Z,13.10
2022-10-01T08:54:30.891Z,13.40
2022-10-01T08:57:01.609Z,13.50
2022-10-01T08:59:42.414Z,13.70
2022-10-01T09:02:22.020Z,13.80
2022-10-01T09:04:55.147Z,13.40
2022-10-01T09:07:50.751Z,13.60
2022-10-01T09:10:46.833Z,13.50
2022-10-01T09:13:50.382Z,13.20
2022-10-01T09:16:33.027Z,13.30
2022-10-01T09:19:40.778Z,13.60
2022-10-01T09:22:30.818Z,13.60
2022-10-01T09:25:14.717Z,13.90
2022-10-01T09:27:42.491Z,13.90
2022-10-01T09:30:22.474Z,13.30
2022-10-01T09:33:18.310Z,13.40
2022-10-01T09:36:06.574Z,13.40
2022-10-01T09:38:43.227Z,13.30
2022-10-01T09:41:11.815Z,13.30
2022-10-01T09:43:40.560Z,13.50
2022-10-01T09:46:17.325Z,13.70
2022-10-01T09:48:56.592Z,13.90
2022-10-01T09:51:40.921Z,13.90
2022-10-01T09:54:35.998Z,13.90
2022-10-01T09:57:24.881Z,13.80
2022-10-01T10:00:19.189Z,14.00
2022-10-01T10:02:49.600Z,14.10
2022-10-01T10:05:19.728Z,14.30
2022-10-01T10:07:57.793Z,14.20
2022-10-01T10:10:30.698Z,14.20
2022-10-01T10:13:24.498Z,14.20
2022-10-01T10:15:57.799Z,14.20
2022-10-01T10:18:34.677Z,14.10
2022-10-01T10:21:20.597Z,14.10
2022-10-01T10:23:56.343Z,14.20
2022-10-01T10:26:32.605Z,14.30
2022-10-01T10:29:04.713Z,14.50
2022-10-01T10:31:44.009Z,14.60
2022-10-01T10:34:16.834Z,14.30
2022-10-01T10:36:45.797Z,14.20
2022-10-01T10:39:30.905Z,14.10
2022-10-01T10:42:00.190Z,14.20
2022-10-01T10:44:35.270Z,14.40
2022-10-01T10:47:07.269Z,14.30
2022-10-01T10:49:57.038Z,14.30
2022-10-01T10:52:36.594Z,14.50
2022-10-01T10:55:22.697Z,14.50
2022-10-01T10:57:53.341Z,14.20
2022-10-01T11:00:26.099Z,14.20
2022-10-01T11:03:04.332Z,13.90
2022-10-01T11:05:34.242Z,13.80
2022-10-01T11:08:05.193Z,13.70
2022-10-01T11:11:05.741Z,13.70
2022-10-01T11:13:51.266Z,13.40
2022-10-01T11:17:07.307Z,13.50
2022-10-01T11:19:52.855Z,13.70
2022-10-01T11:22:34.526Z,13.60
2022-10-01T11:25:28.980Z,13.60
2022-10-01T11:28:22.676Z,13.70
2022-10-01T11:31:06.851Z,14.00
2022-10-01T11:33:51.615Z,14.10
2022-10-01T11:37:01.357Z,14.00
2022-10-01T11:39:32.197Z,13.90
2022-10-01T11:42:17.091Z,14.00
2022-10-01T11:45:01.688Z,14.00
2022-10-01T11:47:38.046Z,14.40
2022-10-01T11:50:07.423Z,14.70
2022-10-01T11:53:06.255Z,14.60
2022-10-01T11:56:14.915Z,14.50
2022-10-01T11:59:13.433Z,14.50
2022-10-01T12:02:04.436Z,14.60
2022-10-01T12:04:33.947Z,14.40
2022-10-01T12:07:13.270Z,14.60
2022-10-01T12:09:58.931Z,14.40
2022-10-01T12:12:42.906Z,14.40
2022-10-01T12:15:17.874Z,14.50
2022-10-01T12:18:00.339Z,14.50
2022-10-01T12:20:40.891Z,14.60
2022-10-01T12:23:14.510Z,14.20
2022-10-01T12:26:04.810Z,14.30
2022-10-01T12:28:40.772Z,14.10
2022-10-01T12:31:23.231Z,14.10
2022-10-01T12:34:27.324Z,13.90
2022-10-01T12:37:33.215Z,13.90
2022-10-01T12:40:15.421Z,13.70
2022-10-01T12:43:04.210Z,13.80
2022-10-01T12:45:47.564Z,13.70
2022-10-01T12:48:28.740Z,13.70
2022-10-01T12:51:20.837Z,13.70
2022-10-01T12:54:17.167Z,13.70
2022-10-01T12:57:08.058Z,14.10
2022-10-01T13:00:10.217Z,14.10
2022-10-01T13:02:43.584Z,14.30
2022-10-01T13:05:10.770Z,14.20
2022-10-01T13:08:03.402Z,14.20
2022-10-01T13:10:57.164Z,14.10
2022-10-01T13:13:33.680Z,13.90
2022-10-01T13:16:04.059Z,14.10
2022-10-01T13:18:55.272Z,14.20
2022-10-01T13:21:43.687Z,14.30
2022-10-01T13:24:40.995Z,14.30
2022-10-01T13:27:22.392Z,14.30
2022-10-01T13:30:10.883Z,14.20
2022-10-01T13:32:51.371Z,14.20
2022-10-01T13:35:34.457Z,14.00
2022-10-01T13:38:29.228Z,14.30
2022-10-01T13:41:18.362Z,14.20
2022-10-01T13:44:00.701Z,14.00
2022-10-01T13:46:36.039Z,14.00
2022-10-01T13:49:08.255Z,14.00
2022-10-01T13:51:39.524Z,14.00
2022-10-01T13:54:29.689Z,13.80
2022-10-01T13:57:08.545Z,13.60
2022-10-01T13:59:37.716Z,13.50
2022-10-01T14:02:29.632Z,13.40
2022-10-01T14:05:03.749Z,13.40
2022-10-01T14:07:36.180Z,13.40
2022-10-01T14:10:03.746Z,13.30
2022-10-01T14:12:54.919Z,13.30
2022-10-01T14:15:52.051Z,13.20
2022-10-01T14:18:23.467Z,13.20
2022-10-01T14:21:18.122Z,13.20
2022-10-01T14:24:05.641Z,13.20
2022-10-01T14:26:45.067Z,13.10
2022-10-01T14:29:32.960Z,13.10
2022-10-01T14:32:27.199Z,13.20
2022-10-01T14:35:26.488Z,13.10
2022-10-01T14:38:00.456Z,13.00
2022-10-01T14:40:37.715Z,12.90
2022-10-01T14:43:17.482Z,12.80
2022-10-01T14:46:05.667Z,12.70
2022-10-01T14:48:34.822Z,12.60
2022-10-01T14:51:08.147Z,12.60
2022-10-01T14:53:38.573Z,12.50
2022-10-01T14:56:09.730Z,12.50
2022-10-01T14:58:46.598Z,12.60
2022-10-01T15:01:22.278Z,12.60
2022-10-01T15:03:50.673Z,12.60
2022-10-01T15:06:20.749Z,12.50
2022-10-01T15:08:50.039Z,12.40
2022-10-01T15:11:26.097Z,12.30
2022-10-01T15:14:08.396Z,12.30
2022-10-01T15:16:36.675Z,12.20
2022-10-01T15:19:15.864Z,12.10
2022-10-01T15:22:02.428Z,12.00
2022-10-01T15:24:35.469Z,12.00
2022-10-01T15:27:02.925Z,11.90
2022-10-01T15:29:30.354Z,11.80
2022-10-01T15:31:58.519Z,11.80
2022-10-01T15:34:27.886Z,11.70
2022-10-01T15:36:55.714Z,11.60
2022-10-01T15:39:30.940Z,11.50
2022-10-01T15:41:59.167Z,11.50
2022-10-01T15:44:45.714Z,11.40
2022-10-01T15:47:25.818Z,11.40
2022-10-01T15:50:04.206Z,11.30
2022-10-01T15:52:53.224Z,11.20
2022-10-01T15:55:44.089Z,11.10
2022-10-01T15:58:11.756Z,11.00
2022-10-01T16:00:48.834Z,11.00
2022-10-01T16:03:24.251Z,10.90
2022-10-01T16:05:55.111Z,10.80
2022-10-01T16:08:26.763Z,10.70
2022-10-01T16:11:17.859Z,10.60
2022-10-01T16:13:50.735Z,10.50
2022-10-01T16:16:23.895Z,10.50
2022-10-01T16:18:59.960Z,10.40
2022-10-01T16:21:27.540Z,10.30
2022-10-01T16:23:56.059Z,10.20
2022-10-01T16:26:33.667Z,10.10
2022-10-01T16:29:24.741Z,10.00
2022-10-01T16:32:15.123Z,9.90
2022-10-01T16:35:21.790Z,9.80
2022-10-01T16:37:50.571Z,9.80
2022-10-01T16:40:19.286Z,9.70
2022-10-01T16:42:48.990Z,9.60
2022-10-01T16:45:18.666Z,9.60
2022-10-01T16:47:47.070Z,9.50
2022-10-01T16:50:16.545Z,9.50
2022-10-01T16:52:43.967Z,9.50
2022-10-01T16:55:38.191Z,9.40
2022-10-01T16:58:06.992Z,9.30
2022-10-01T17:00:37.269Z,9.40
2022-10-01T17:03:09.054Z,9.30
2022-10-01T17:05:37.387Z,9.30
2022-10-01T17:08:11.450Z,9.30
2022-10-01T17:10:53.135Z,9.10
2022-10-01T17:13:20.308Z,9.10
2022-10-01T17:15:48.582Z,9.10
2022-10-01T17:18:16.009Z,8.90
2022-10-01T17:20:43.678Z,9.00
2022-10-01T17:23:13.653Z,9.00
2022-10-01T17:25:42.549Z,8.90
2022-10-01T17:28:14.094Z,8.80
2022-10-01T17:30:43.668Z,8.80
2022-10-01T17:33:13.864Z,8.70
2022-10-01T17:35:51.488Z,8.70
2022-10-01T17:38:19.572Z,8.70
2022-10-01T17:40:47.677Z,8.90
2022-10-01T17:43:17.540Z,8.90
2022-10-01T17:45:52.703Z,8.90
2022-10-01T17:48:21.828Z,8.80
2022-10-01T17:50:57.703Z,8.70
2022-10-01T17:53:27.394Z,8.80
2022-10-01T17:55:56.845Z,8.70
2022-10-01T17:58:24.279Z,8.50
2022-10-01T18:00:51.649Z,8.60
2022-10-01T18:03:19.717Z,8.40
2022-10-01T18:05:46.926Z,8.40
2022-10-01T18:08:14.326Z,8.50
2022-10-01T18:10:41.442Z,8.50
2022-10-01T18:13:08.966Z,8.70
2022-10-01T18:15:36.109Z,8.50
2022-10-01T18:20:50.507Z,8.30
2022-10-01T18:23:17.627Z,8.40
2022-10-01T18:25:44.758Z,8.50
2022-10-01T18:28:12.011Z,8.50
2022-10-01T18:30:39.190Z,8.30
2022-10-01T18:33:13.098Z,8.30
2022-10-01T18:35:44.209Z,8.50
2022-10-01T18:38:24.538Z,8.50
2022-10-01T18:40:57.324Z,8.50
2022-10-01T18:43:26.284Z,8.70
2022-10-01T18:45:53.525Z,8.60
2022-10-01T18:48:50.071Z,8.70
2022-10-01T18:51:58.550Z,8.60
2022-10-01T18:54:44.590Z,8.60
2022-10-01T18:57:17.681Z,8.50
2022-10-01T19:00:23.457Z,8.40
2022-10-01T19:03:03.969Z,8.30
2022-10-01T19:06:11.616Z,8.20
2022-10-01T19:08:41.842Z,8.40
2022-10-01T19:11:18.458Z,8.40
2022-10-01T19:14:23.445Z,8.50
2022-10-01T19:17:10.840Z,8.40
2022-10-01T19:20:14.250Z,8.30
2022-10-01T19:23:09.836Z,8.40
2022-10-01T19:25:53.062Z,8.40
2022-10-01T19:29:07.180Z,8.50
2022-10-01T19:31:41.012Z,8.40
2022-10-01T19:34:35.999Z,8.40
2022-10-01T19:37:12.374Z,8.50
2022-10-01T19:39:43.891Z,8.70
2022-10-01T19:42:34.971Z,8.80
2022-10-01T19:45:24.340Z,9.00
2022-10-01T19:48:13.623Z,8.90
2022-10-01T19:50:45.625Z,8.80
2022-10-01T19:53:25.169Z,8.90
2022-10-01T19:55:53.370Z,8.90
2022-10-01T19:58:21.760Z,9.00
2022-10-01T20:00:55.950Z,8.90
2022-10-01T20:03:34.610Z,8.90
2022-10-01T20:06:20.238Z,8.90
2022-10-01T20:09:01.202Z,8.70
2022-10-01T20:11:36.461Z,8.70
2022-10-01T20:14:59.339Z,8.60
2022-10-01T20:17:44.942Z,8.70
2022-10-01T20:20:23.483Z,8.70
2022-10-01T20:23:33.476Z,8.60
2022-10-01T20:26:04.031Z,8.40
2022-10-01T20:28:53.010Z,8.40
2022-10-01T20:31:42.019Z,8.30
2022-10-01T20:34:32.865Z,8.20
2022-10-01T20:37:52.514Z,8.10
2022-10-01T20:40:28.087Z,8.10
2022-10-01T20:43:17.684Z,8.10
2022-10-01T20:45:47.535Z,8.00
2022-10-01T20:48:22.479Z,8.10
2022-10-01T20:50:54.280Z,8.00
2022-10-01T20:53:30.470Z,7.80
2022-10-01T20:56:04.574Z,7.80
2022-10-01T20:58:44.559Z,7.60
2022-10-01T21:01:32.640Z,7.60
2022-10-01T21:04:21.105Z,7.60
2022-10-01T21:06:53.427Z,7.50
2022-10-01T21:09:33.226Z,7.40
2022-10-01T21:12:15.430Z,7.30
2022-10-01T21:14:46.855Z,7.40
2022-10-01T21:17:35.294Z,7.30
2022-10-01T21:20:11.767Z,7.20
2022-10-01T21:23:06.322Z,7.10
2022-10-01T21:26:05.390Z,7.10
2022-10-01T21:29:00.840Z,7.00
2022-10-01T21:32:05.880Z,7.00
2022-10-01T21:34:46.517Z,6.90
2022-10-01T21:37:25.018Z,6.90
2022-10-01T21:39:58.339Z,6.90
2022-10-01T21:43:03.014Z,6.90
2022-10-01T21:45:51.609Z,6.80
2022-10-01T21:48:33.015Z,6.90
2022-10-01T21:51:10.765Z,6.90
2022-10-01T21:54:09.077Z,6.80
2022-10-01T21:57:00.933Z,6.90
2022-10-01T22:00:08.093Z,6.80
2022-10-01T22:03:13.488Z,6.80
2022-10-01T22:05:56.642Z,6.90
2022-10-01T22:09:02.355Z,6.90
2022-10-01T22:11:39.453Z,7.20
2022-10-01T22:14:16.668Z,7.10
2022-10-01T22:16:53.430Z,7.10
2022-10-01T22:19:42.990Z,7.00
2022-10-01T22:22:15.058Z,7.00
2022-10-01T22:24:48.311Z,7.10
2022-10-01T22:27:39.442Z,7.00
2022-10-01T22:30:12.786Z,7.00
2022-10-01T22:33:04.649Z,7.00
2022-10-01T22:35:39.412Z,7.00
2022-10-01T22:38:15.150Z,7.00
2022-10-01T22:40:53.410Z,7.00
2022-10-01T22:43:20.586Z,7.00
2022-10-01T22:46:05.822Z,7.10
2022-10-01T22:49:01.186Z,7.10
2022-10-01T22:51:39.108Z,7.00
2022-10-01T22:54:30.065Z,7.10
2022-10-01T22:57:27.648Z,7.40
2022-10-01T23:00:03.358Z,7.30
2022-10-01T23:02:41.335Z,7.10
2022-10-01T23:05:27.085Z,7.10
2022-10-01T23:08:12.054Z,7.30
2022-10-01T23:11:00.761Z,7.30
2022-10-01T23:13:45.297Z,7.30
2022-10-01T23:16:27.741Z,7.20
2022-10-01T23:19:13.890Z,7.10
2022-10-01T23:21:55.836Z,7.10
2022-10-01T23:24:47.643Z,7.30
2022-10-01T23:27:20.923Z,7.30
2022-10-01T23:30:09.717Z,7.30
2022-10-01T23:32:46.030Z,7.40
2022-10-01T23:35:20.378Z,7.50
2022-10-01T23:37:59.270Z,7.50
2022-10-01T23:40:30.744Z,7.70
2022-10-01T23:43:06.685Z,7.70
2022-10-01T23:45:40.528Z,7.80
2022-10-01T23:48:17.304Z,7.80
2022-10-01T23:50:54.529Z,7.80
2022-10-01T23:53:55.219Z,7.90
2022-10-01T23:56:57.642Z,7.90
2022-10-01T23:59:44.934Z,7.90
